x

8452951 - Potter Cove, Prudence Island, Ri (ptcr1) Weather Station

10:30 - Wed 18th Jan 2017 All times are EST. -5 hours from GMT.

  • Wind
    11mph, 15mph gusts
  • Luft Temp 38°f
  • Sea Pressure 1014.6mb
  • 8452951 - Potter Cove, Prudence Island, Ri
  • 8452951 - Potter Cove, Prudence Island, Ri

More Historic Weather Station data

Upgrade to MSW Pro to gain access to the past 30 days of data for over 8000 Wavebouys and Weather Stations around the globe.

Join Pro

Comparision Forecast

View Surf forecast
   
Mi 01/18 10:30 11 15 mph 1014.6mb 38f
10:24 11 15 mph 1014.6mb 38f
10:18 13 16 mph 1014.7mb 38f
10:12 11 14 mph 1014.8mb 38f
10:06 11 15 mph 1014.9mb 38f
10:00 11 15 mph 1014.9mb 38f
9:54 11 15 mph 1014.9mb 38f
9:48 11 15 mph 1014.9mb 38f
9:42 10 14 mph 1014.9mb 38f
9:36 10 13 mph 1015mb 38f
9:30 11 14 mph 1015mb 38f
9:24 10 14 mph 1015mb 38f
9:18 11 15 mph 1015mb 38f
9:12 11 14 mph 1014.9mb 38f
9:06 11 14 mph 1014.7mb 38f
9:00 10 15 mph 1014.7mb 38f
8:54 10 14 mph 1014.6mb 38f
8:48 10 13 mph - -
8:42 11 14 mph 1014.5mb 38f
8:36 10 14 mph 1014.4mb 38f
8:30 11 14 mph 1014.4mb 38f
8:24 11 14 mph 1014.3mb 38f
8:18 11 14 mph 1014.4mb 38f
8:12 11 14 mph 1014.4mb 38f
8:06 11 14 mph 1014.3mb 38f
8:00 11 14 mph 1014.3mb 38f
7:54 10 13 mph 1014.3mb 38f
7:48 11 14 mph 1014.3mb 38f
7:42 10 13 mph 1014.3mb 38f
7:36 9 11 mph 1014.2mb 38f
7:30 9 11 mph 1014.1mb 38f
7:24 9 13 mph 1014.2mb 38f
7:18 9 11 mph 1014.1mb 38f
7:12 9 11 mph 1014.1mb 38f
7:06 10 14 mph 1014.2mb 38f
7:00 9 13 mph 1014.2mb 38f
6:54 9 13 mph 1014.2mb 38f
6:48 9 11 mph 1014.2mb 38f
6:42 8 10 mph 1014.4mb 38f
6:36 9 10 mph 1014.6mb 38f
6:30 8 11 mph 1014.6mb 38f
6:24 8 10 mph 1014.6mb 38f
6:18 8 10 mph 1014.5mb 38f
6:12 8 13 mph 1014.5mb 38f
6:06 8 11 mph 1014.5mb 38f
6:00 9 11 mph 1014.5mb -
5:54 9 14 mph 1014.5mb 38f
5:48 8 11 mph 1014.5mb 39f
5:42 8 10 mph 1014.8mb 39f
5:36 9 11 mph 1014.8mb 39f
5:30 8 11 mph 1014.7mb 39f
5:24 7 11 mph 1014.6mb 39f
5:18 8 10 mph 1014.6mb 39f
5:12 7 10 mph 1014.5mb 39f
5:06 9 13 mph 1014.7mb 39f
5:00 10 14 mph 1014.3mb 39f
4:54 9 13 mph 1014.1mb 39f
4:48 7 11 mph 1014.4mb 39f
4:42 8 11 mph 1014.7mb 39f
4:36 8 11 mph 1014.6mb 39f
4:30 10 14 mph 1014.5mb 39f
4:24 10 14 mph 1014.3mb 39f
4:18 13 15 mph 1014.1mb 39f
4:12 11 15 mph 1014.2mb 39f
4:06 11 15 mph 1014.5mb 38f
4:00 13 17 mph 1014.6mb 38f
3:54 8 13 mph 1014.6mb 38f
3:48 9 11 mph 1014.9mb 38f
3:42 9 13 mph 1014.9mb 38f
3:36 9 13 mph 1015mb 38f
3:30 9 13 mph 1015mb 38f
3:24 9 13 mph 1015mb 38f
3:18 9 11 mph 1015.1mb 38f
3:12 9 13 mph 1015.2mb 38f
3:06 9 10 mph 1015.2mb 38f
3:00 10 14 mph 1015.4mb -
2:54 9 11 mph 1015.4mb 38f
2:48 10 14 mph 1015.5mb 38f
2:42 10 14 mph 1015.6mb 38f
2:36 10 14 mph 1015.6mb 38f
2:30 10 14 mph 1015.7mb 38f
2:24 11 15 mph 1015.8mb 38f
2:18 10 14 mph 1015.8mb 39f
2:12 9 13 mph 1016mb 38f
2:06 10 15 mph 1016.3mb 39f
2:00 10 14 mph 1016.3mb 39f
1:54 10 14 mph 1016.4mb 39f
1:48 9 14 mph 1016.4mb 39f
1:42 13 15 mph 1016.4mb 39f
1:36 11 15 mph 1016.5mb 39f
1:30 10 14 mph 1016.5mb -
1:24 10 15 mph 1016.5mb 39f
1:18 11 17 mph 1016.6mb 39f
1:12 9 14 mph 1016.7mb 39f
1:06 10 16 mph 1016.7mb 39f
1:00 6 14 mph 1016.8mb 39f
12:54 8 13 mph 1016.9mb 39f
12:48 8 14 mph 1016.7mb 39f
12:42 8 13 mph 1016.9mb 39f
12:36 7 14 mph 1017.1mb 39f
12:30 8 14 mph 1017.1mb 39f
12:24 7 10 mph 1017.3mb 39f
12:18 8 11 mph 1017.5mb 39f
12:12 7 10 mph 1017.6mb 39f
12:06 8 10 mph 1017.8mb 39f
12:00 7 10 mph 1018mb 39f
Di 01/17 11:54 6 9 mph 1018.1mb 39f
11:48 6 9 mph - -
11:42 5 7 mph 1018.4mb 39f
11:36 5 8 mph 1018.8mb 39f
11:30 3 7 mph 1018.7mb 39f
11:24 6 11 mph 1018.7mb 39f
11:18 5 10 mph 1018.7mb 40f
11:12 6 10 mph 1018.8mb 39f
11:06 5 11 mph 1018.7mb 39f
11:00 6 11 mph 1018.7mb 39f
10:54 6 9 mph 1018.7mb 39f
10:48 7 14 mph 1018.8mb 39f
10:42 6 10 mph 1019mb 40f
10:36 6 11 mph 1019.1mb 39f
10:30 5 7 mph 1019.2mb 39f
10:24 6 9 mph 1019.3mb 39f
10:18 6 9 mph 1019.3mb 39f
10:12 6 9 mph 1019.3mb 39f
10:06 7 11 mph 1019.3mb 39f
10:00 8 15 mph 1019mb 39f
9:54 7 13 mph 1019mb 39f
9:48 6 10 mph 1019mb -
9:42 5 10 mph 1019.5mb 39f
9:36 6 10 mph 1019.6mb 39f
9:30 6 8 mph 1019.6mb 39f
9:24 5 9 mph 1020.2mb 39f
9:18 8 13 mph 1020.4mb 39f
9:12 7 11 mph 1019.7mb 39f
9:06 8 11 mph 1020mb 38f
9:00 10 13 mph 1020.1mb 38f
8:54 10 15 mph 1020.1mb 38f
8:48 7 10 mph 1020mb 38f
8:42 6 9 mph 1020.3mb 38f
8:36 5 8 mph 1020.7mb 38f
8:30 6 9 mph 1020.9mb 38f
8:24 8 11 mph 1020.9mb 38f
8:18 10 14 mph 1020.8mb 38f
8:12 6 8 mph 1020.7mb 38f
8:06 6 8 mph 1021.1mb 38f
8:00 6 8 mph 1021.2mb 38f
7:42 5 8 mph 1021.1mb 38f
7:36 5 7 mph 1021.6mb 38f
7:30 5 6 mph 1021.6mb 38f
7:24 3 6 mph 1021.7mb 38f
7:18 3 6 mph 1021.8mb 38f
7:12 5 6 mph 1021.8mb 38f
7:06 6 9 mph 1021.4mb 38f
7:00 7 8 mph 1021.2mb 38f
6:54 6 9 mph 1021.2mb 38f
6:48 7 8 mph 1021.2mb -
6:42 8 10 mph 1021.2mb 38f
6:36 8 9 mph 1021.2mb 38f
6:30 5 8 mph 1021.4mb 38f
6:24 5 6 mph 1021.4mb 38f
6:18 3
mph
1021.4mb 38f
6:12 1 2 mph 1021.6mb 37f
6:06 2
mph
1021.7mb 37f
6:00 1 2 mph 1021.7mb 37f
5:54 1
mph
1021.8mb 38f
5:48 1 2 mph 1021.8mb 38f
5:42 1 2 mph 1021.8mb 38f
5:36 2 3 mph 1021.8mb 38f
5:30 2 3 mph 1021.6mb 38f
5:24 2
mph
1021.6mb 38f
5:18 1 2 mph 1021.7mb 38f
5:12 1 2 mph 1021.7mb 38f
5:06 1 2 mph 1021.8mb 38f
5:00  -  1 mph 1021.7mb 38f
4:54  -  1 mph 1021.8mb 38f
4:48  -  1 mph 1022mb 38f
4:42  -  1 mph 1022.1mb 38f
4:36  -  1 mph 1022.1mb 38f
4:30 1
mph
1022.2mb 38f
4:24  -  1 mph 1022.3mb 39f
4:18 1 2 mph 1022.2mb 39f
4:12  -  1 mph 1022.2mb 40f
4:06  -  1 mph 1022.2mb 40f
4:00  -  mph 1022.2mb 40f
3:54  -  mph 1022.1mb 40f
3:48  -  mph 1022.1mb -
3:42  -  mph 1022.1mb 40f
3:36  -  mph 1022mb 40f
3:30  -  mph 1022mb 40f
3:24  -  mph 1022mb 40f
3:18  -  mph 1021.9mb 40f
3:12  -  1 mph 1022mb 40f
3:06 1 2 mph 1022mb 40f
3:00 1 2 mph 1022mb 40f
2:54 1 2 mph 1022.1mb 40f
2:48 2 3 mph 1022mb 40f
2:42 1 2 mph 1022mb 40f
2:36  -  1 mph 1022.2mb 41f
2:30  -  1 mph 1022.3mb 41f
2:24  -  1 mph 1022.3mb 41f
2:18 1 2 mph 1022.4mb -
2:12 1 2 mph 1022.3mb 40f
2:06 1 2 mph 1022.4mb 40f
2:00 1 2 mph 1022.4mb 40f
1:54 1 2 mph 1022.4mb 41f
1:48 1
mph
1022.5mb 41f
1:42 1 2 mph 1022.6mb 40f
1:36 1 2 mph 1022.6mb 40f
1:30 2 3 mph 1022.6mb 41f
1:24 2 3 mph 1022.6mb 40f
1:18 2
mph
1022.6mb 40f
1:12 3 5 mph 1022.7mb 40f
1:06 5 6 mph 1022.7mb 41f
1:00 5 7 mph 1022.7mb 40f
12:54 6 7 mph 1022.8mb 41f
12:48 5 7 mph 1022.8mb 41f
12:42 3
mph
1023mb 39f
12:36 3 5 mph 1023mb 39f
12:30 5 7 mph 1023.1mb 39f
12:24 5 6 mph 1023.1mb 39f
12:18 6 7 mph 1023.2mb 38f
12:12 6 7 mph 1023.3mb 39f
12:06 6 7 mph 1023.3mb 39f
12:00 6 7 mph 1023.5mb 39f
11:54 6
mph
1023.6mb 39f
11:48 6 7 mph 1023.8mb 39f
11:42 6 8 mph 1023.8mb 38f
11:36 6 7 mph 1023.8mb 38f
11:30 5 7 mph 1023.8mb 38f
11:24 5 7 mph 1023.9mb 38f
11:18 3 6 mph 1024mb 37f
11:12 2 3 mph 1024.1mb 37f
11:06 3 5 mph 1024.1mb 37f
11:00 5 6 mph 1024.1mb 37f
10:54 6 7 mph 1024.2mb 37f
10:48 5 6 mph 1024.3mb -
10:42 3 5 mph 1024.5mb 37f
10:36 5 6 mph 1024.6mb 37f
10:30 5 6 mph 1024.7mb 37f
10:24 5 6 mph 1024.6mb 37f
10:18 5 6 mph 1024.6mb 37f
10:12 2 5 mph 1024.6mb 37f
10:06 3 5 mph 1024.7mb 37f
10:00 3
mph
1024.9mb 37f
9:54 2 3 mph 1025mb 37f
9:48 3 5 mph 1025mb 37f
9:42 2
mph
1025mb 37f
9:36 2 3 mph 1025mb 37f
9:30 1 2 mph 1025mb 37f
9:24  -  2 mph 1025.1mb 37f
9:18 1 2 mph 1025mb 37f
9:12 1 2 mph 1024.9mb 37f
9:06 2 3 mph 1025mb 37f
9:00 1 2 mph 1025mb 37f
8:54 1 2 mph 1024.9mb 37f
8:48 1 2 mph 1024.9mb -
8:42 2 3 mph 1024.8mb 37f
8:36 2 3 mph 1024.9mb 37f
8:30 3 5 mph 1024.9mb 37f
8:24 2
mph
1024.8mb 36f
8:18 2
mph
1024.7mb 36f
8:12 2 3 mph 1024.7mb 36f
8:06 3 6 mph 1024.5mb 36f
8:00 5 6 mph 1024.4mb 36f
7:54 5 6 mph 1024.3mb 36f
7:48 3 5 mph 1024.2mb 36f
7:42 3 5 mph 1024.1mb 36f
7:36 3 5 mph 1024.1mb 35f
7:30 5
mph
1024mb 35f
7:24 3 5 mph 1023.9mb 35f
7:18 5 6 mph 1023.8mb -
7:12 3 5 mph 1023.8mb 35f
7:06 3 5 mph 1023.8mb 35f
7:00 5 6 mph 1023.8mb 35f
6:54 5 6 mph 1023.7mb 35f
6:48 5 7 mph 1023.7mb -
6:42 5 6 mph 1023.5mb 36f
6:36 5 6 mph 1023.7mb 36f
6:30 6 8 mph 1023.8mb 36f
6:24 5 6 mph 1023.8mb 36f
6:18 5 7 mph 1023.6mb 36f
6:12 5 7 mph 1023.5mb 36f
6:06 5 7 mph 1023.5mb 36f
6:00 6 7 mph 1023.6mb 36f
5:54 5 7 mph 1023.7mb 36f
5:48 5 6 mph 1023.6mb -
5:42 3 6 mph 1023.6mb 36f
5:36 2 5 mph 1023.5mb 35f
5:30 1 2 mph 1023.5mb 35f
5:24 3 5 mph 1023.4mb 35f
5:18 5 6 mph 1023.3mb 35f
5:12 3 6 mph 1023.3mb 35f
5:06 3 6 mph 1023.4mb 36f
5:00 6 7 mph 1023.5mb 36f
4:54 5 7 mph 1023.4mb 36f
4:48 1 2 mph 1023.4mb 36f
4:42 5 6 mph 1023.4mb 36f
4:36 5 6 mph 1023.3mb 36f
4:30 6 8 mph 1023.4mb 36f
4:24 6 8 mph 1023.4mb 36f
4:18 6 8 mph 1023.4mb -
4:12 7 9 mph 1023.4mb 36f
4:06 7 10 mph 1023.4mb 36f
4:00 8 10 mph 1023.5mb 36f
3:54 9 13 mph 1023.4mb 36f
3:48 8 10 mph 1023.4mb -
3:42 7 11 mph 1023.4mb 36f
3:36 7 9 mph 1023.4mb 36f
3:30 7 11 mph 1023.4mb 36f
3:24 7 10 mph 1023.5mb 36f
3:18 7 10 mph 1023.5mb 36f
3:12 6 8 mph 1023.8mb 36f
3:06 6 7 mph 1023.7mb 36f
3:00 6 7 mph 1023.6mb 36f
2:54 7 9 mph 1023.8mb 37f
2:48 7 9 mph 1024mb -
2:42 7 8 mph 1024mb 37f
2:36 6 9 mph 1023.9mb 36f
2:30 6 9 mph 1023.9mb 36f
2:24 7 9 mph 1024mb 36f
2:18 6 8 mph 1023.9mb 36f
2:12 6 7 mph 1023.8mb 36f
2:06 6 8 mph 1024mb 36f
2:00 6 7 mph 1024.1mb 36f
1:54 6 7 mph 1024.1mb 36f
1:48 5 7 mph 1024.1mb 36f
1:42 6 7 mph 1024.1mb -
1:36 6 8 mph 1024.1mb -
1:30 6 7 mph 1024mb -
1:24 6 7 mph 1024mb 36f
1:18 6 7 mph 1024.1mb 36f
1:12 6 7 mph 1024.2mb 36f
1:06 6 7 mph 1024.2mb 36f
1:00 6 7 mph - -
12:54 6 8 mph 1024.3mb 35f
12:48 6 7 mph 1024.3mb 35f
12:42 6 7 mph - -
12:36 5 6 mph - -
12:30 6 7 mph 1024.5mb 35f
12:24 6 8 mph 1024.5mb 35f
12:18 7 8 mph 1024.6mb 35f
12:12 6 8 mph 1024.7mb 35f
12:06 7 9 mph 1024.7mb 35f
12:00 7 9 mph 1024.8mb 35f
Mo 01/16 11:54 6 8 mph 1024.9mb 35f
11:48 6 8 mph 1025mb 35f
11:42 6 8 mph 1025mb 35f
11:36 6 8 mph 1025.1mb 35f
11:30 7 10 mph 1025.1mb 35f
11:24 6 9 mph 1025.2mb 35f
11:18 7 10 mph - -
11:12 6 9 mph 1025.4mb 35f
11:06 7 10 mph 1025.3mb 35f
11:00 6 8 mph 1025.3mb 35f
10:54 6 9 mph 1025.5mb 35f
10:48 6 9 mph 1025.6mb 35f
10:42 6 8 mph 1025.7mb 35f
10:36 6 8 mph 1025.7mb 35f
10:30 7 10 mph 1025.8mb 35f
10:24 7 10 mph 1025.8mb 35f
10:18 6 9 mph 1025.9mb 35f
10:12 7 9 mph 1026mb 35f
10:06 7 10 mph 1025.9mb 35f
10:00 8 11 mph 1025.9mb 35f
9:54 8 13 mph 1025.9mb 35f
9:48 8 11 mph 1025.9mb 35f
9:42 8 11 mph 1026.1mb 35f
9:36 8 11 mph 1026.2mb 35f
9:30 8 13 mph 1026.2mb 35f
9:24 8 11 mph 1026.2mb 35f
9:18 7 10 mph 1026.3mb 35f
9:12 8 11 mph 1026.3mb 35f
9:06 7 13 mph 1026.4mb 35f
9:00 7 10 mph 1026.4mb 35f
8:54 6 9 mph 1026.5mb 35f
8:48 7 10 mph - -
8:42 7 10 mph 1026.6mb 35f
8:36 7 11 mph 1026.7mb 35f
8:30 6 10 mph 1026.7mb 35f
8:24 6 8 mph 1026.7mb 35f
8:18 6 10 mph - -
8:12 6 8 mph 1026.7mb 35f
8:06 6 8 mph 1026.8mb 35f
8:00 6 8 mph 1026.8mb 35f
7:54 7 9 mph 1026.8mb 35f
7:48 6 9 mph 1026.9mb 35f
7:42 6 8 mph 1026.8mb 35f
7:36 6 8 mph 1026.9mb 35f
7:30 5 7 mph 1026.9mb 35f
7:24 5 7 mph 1026.9mb 35f
7:18 6 9 mph 1027mb 35f
7:12 6 8 mph 1026.9mb 35f
7:06 7 10 mph 1026.9mb 35f
7:00 7 10 mph 1027mb 35f
6:54 8 13 mph 1027.3mb 35f
6:48 6 9 mph 1027.3mb 35f
6:42 7 9 mph 1027.3mb 35f
6:36 7 10 mph 1027.2mb 35f
6:30 9 13 mph 1027.1mb 35f
6:24 8 14 mph 1027.1mb 35f
6:18 9 14 mph 1027mb 35f
6:12 10 14 mph 1026.9mb 35f
6:06 9 15 mph 1026.9mb 36f
6:00 9 13 mph 1027mb 35f
5:54 8 13 mph 1026.9mb 35f
5:48 9 14 mph - -
5:42 10 16 mph 1027mb 35f
5:36 9 14 mph 1026.9mb 36f
5:30 9 13 mph 1026.8mb 36f
5:24 9 15 mph 1026.9mb 36f
5:18 8 13 mph 1026.9mb 36f
5:12 10 16 mph 1027mb 36f
5:06 10 14 mph 1026.9mb 36f
5:00 13 18 mph 1026.9mb 36f
4:54 11 20 mph 1026.8mb 36f
4:48 11 17 mph 1026.9mb 37f
4:42 11 18 mph 1027mb 37f
4:36 9 16 mph 1027.1mb 37f
4:30 7 13 mph 1027.1mb 37f
4:24 8 13 mph 1027.1mb 37f
4:18 8 13 mph 1027.1mb 37f
4:12 7 10 mph 1027.1mb 38f
4:06 6 9 mph 1027.2mb 38f
4:00 7 10 mph 1027.3mb 38f
3:54 6 9 mph 1027.3mb 38f
3:48 7 10 mph 1027.3mb 38f
3:42 7 10 mph 1027.2mb 38f
3:36 7 11 mph 1027.1mb 39f
3:30 7 10 mph 1027.1mb 40f
3:24 6 8 mph 1027.1mb 40f
3:18 6 9 mph 1027.1mb -
3:12 6 10 mph 1027.1mb 40f
3:06 7 10 mph 1027.1mb 40f
3:00 7 11 mph 1027.2mb 40f
2:54 7 10 mph 1027.2mb 40f
2:48 7 11 mph 1027.2mb 40f
2:42 6 10 mph 1027.2mb 40f
2:36 8 13 mph 1027.2mb 40f
2:30 8 14 mph 1027.3mb 40f
2:24 6 10 mph 1027.4mb 40f
2:18 8 13 mph 1027.4mb 41f
2:12 7 11 mph 1027.5mb 40f
2:06 6 10 mph 1027.6mb 40f
2:00 8 13 mph 1027.6mb 40f
1:54 8 11 mph 1027.6mb 40f
1:48 7 11 mph 1027.5mb -
1:42 8 13 mph 1027.7mb 41f
1:36 8 11 mph 1027.7mb 40f
1:30 9 14 mph 1027.8mb 40f
1:24 9 13 mph 1027.9mb 40f
1:18 9 14 mph 1027.9mb 40f
1:12 10 14 mph 1028.1mb 40f
1:06 11 17 mph 1028.3mb 40f
1:00 9 13 mph 1028.3mb 40f
12:54 9 13 mph 1028.3mb 39f
12:48 9 14 mph 1028.4mb -
12:42 10 15 mph 1028.5mb 39f
12:36 10 16 mph 1028.6mb 39f
12:30 10 16 mph 1028.7mb 39f
12:24 9 14 mph 1028.8mb 39f
12:18 10 14 mph 1028.9mb -
12:12 10 15 mph 1029mb 39f
12:06 11 17 mph 1029.1mb 39f
12:00 11 15 mph 1029.3mb 39f
11:54 11 17 mph 1029.4mb 38f
11:48 10 14 mph 1029.5mb 38f
11:42 10 14 mph 1029.6mb 38f
11:36 7 13 mph 1029.7mb 38f
11:30 6 9 mph 1029.9mb 37f
11:24 3 7 mph 1030mb 37f
11:18 2 5 mph 1030.1mb 37f
11:12 3 6 mph 1030.3mb 36f
11:06 3 6 mph 1030.3mb 36f
11:00 5 7 mph 1030.4mb 36f
10:54 2 3 mph 1030.6mb 35f
10:48 3 5 mph 1030.7mb -
10:42 2 6 mph 1030.8mb 34f
10:36 3 6 mph 1030.9mb 34f
10:30 3 5 mph 1031mb 33f
10:24 3 6 mph 1031mb 33f
10:18 3 5 mph 1031.2mb 33f
10:12 2 5 mph 1031.3mb 33f
10:06 2 5 mph 1031.4mb 32f
10:00 3 6 mph 1031.4mb 32f
9:54 2 3 mph 1031.5mb 32f
9:48 2 3 mph 1031.5mb 32f
9:42 2 3 mph 1031.5mb 32f
9:36 2 5 mph 1031.5mb 31f
9:30 2 3 mph 1031.5mb 31f
9:24 1 2 mph 1031.6mb 31f
9:18 1 2 mph - -
9:12 2 3 mph 1031.3mb 30f
9:06  -  1 mph 1031.4mb 30f
9:00  -  2 mph 1031.2mb 30f
8:54  -  1 mph 1031.1mb 30f
8:48 1 2 mph 1031.2mb 29f
8:42 1
mph
1031.2mb 29f
8:36  -  1 mph 1031.2mb 28f
8:30  -  1 mph 1031.3mb 28f
8:24  -  1 mph 1031.4mb 28f
8:18  -  1 mph 1031.3mb 27f
8:12  -  1 mph 1031.5mb 27f
8:06  -  1 mph 1031.6mb 27f
8:00 1 2 mph 1031.5mb 26f
7:54 1 2 mph 1031.5mb 26f
7:48 2
mph
1031.6mb 26f
7:42  -  1 mph 1031.5mb 26f
7:36 1
mph
1031.3mb 26f
7:30  -  1 mph 1031.4mb 25f
7:24  -  1 mph 1031.1mb 25f
7:18 1 2 mph 1031.2mb 25f
7:12 2
mph
1031.3mb 25f
7:06 2
mph
1031.4mb 24f
7:00 2
mph
1031.5mb 23f
6:54 1 2 mph 1031.4mb 24f
6:48 2
mph
1031.3mb 25f
6:42 1 2 mph 1031.3mb 25f
6:36 2 3 mph 1031.3mb 25f
6:30 2 3 mph 1031.3mb 25f
6:24 2 3 mph 1031.3mb 25f
6:18 2 3 mph 1031.2mb 25f
6:12 3 5 mph 1031.2mb 25f
6:06 3 5 mph 1031.2mb 25f
6:00 3 5 mph 1031.1mb 25f
5:54 3 5 mph 1031.1mb 25f
5:48 3 5 mph 1031.1mb 24f
5:42 2 3 mph 1031.1mb 25f
5:36 3
mph
1031.1mb 25f
5:30 3
mph
1031.2mb 25f
5:24 3
mph
1031.1mb 25f
5:18 2 3 mph 1031.1mb 25f
5:12 3
mph
1031.1mb 25f
5:06 3
mph
1031.1mb 25f
5:00 2 3 mph 1031.2mb 25f
4:54 2
mph
1031.1mb 26f
4:48 3 5 mph 1031.1mb 26f
4:42 3
mph
1031.1mb 26f
4:36 2 3 mph 1031.2mb 26f
4:30 2 3 mph 1031.2mb 25f
4:24 2
mph
1031.2mb 25f
4:18 2
mph
1031.1mb 25f
4:12 2
mph
1031.1mb 25f
4:06 2 3 mph 1031.1mb 26f
4:00 2
mph
1031.2mb 26f
3:54 2
mph
1031.3mb 26f
3:48 2 3 mph 1031.4mb 26f
3:42 2
mph
1031.3mb 26f
3:36 2 3 mph 1031.4mb 26f
3:30 3 5 mph 1031.4mb 26f
3:24 3 5 mph 1031.4mb 27f
3:18 3 5 mph 1031.5mb 27f
3:12 3 6 mph 1031.5mb 27f
3:06 3 5 mph 1031.5mb 27f
3:00 3
mph
1031.4mb 27f
2:54 3 5 mph 1031.3mb 27f
2:48 2 3 mph 1031.3mb 28f
2:42 2 3 mph 1031.3mb 28f
2:36 3 5 mph 1031.2mb 28f
2:30 3 5 mph 1031.3mb -
2:24 3 5 mph 1031.3mb 28f
2:18 3 6 mph 1031.2mb 28f
2:12 5 6 mph 1031.3mb 28f
2:06 5 6 mph 1031.3mb 28f
2:00 6 7 mph 1031.3mb 28f
1:54 6 7 mph 1031.2mb 28f
1:48 5 7 mph 1031.3mb 28f
1:42 5 6 mph 1031.1mb -
1:36 5 6 mph 1031mb -
1:30 5 7 mph - -
1:24 5 6 mph 1030.8mb 28f
1:18 5 6 mph 1030.7mb 28f
1:12 3 5 mph 1030.6mb 28f
1:06 3 5 mph 1030.7mb 28f
1:00 3 5 mph 1030.7mb 28f
12:54 3 5 mph 1030.6mb 28f
12:48 3 5 mph 1030.5mb 28f
12:42 3 6 mph 1030.5mb 28f
12:36 5 6 mph 1030.6mb 28f
12:30 3 5 mph 1030.3mb 29f
12:24 3 5 mph 1030.3mb 28f
12:18 2 3 mph 1030.2mb 28f
12:12 5 6 mph 1030.1mb 28f
12:06 5 7 mph 1030.1mb 28f
12:00 5 6 mph 1030mb 29f
So 01/15 11:54 3 6 mph 1030mb 29f
11:48 5 6 mph 1029.9mb 29f
11:42 5 6 mph 1029.9mb 29f
11:36 5 7 mph 1029.7mb 28f
11:30 3 6 mph 1029.9mb 29f
11:24 5 6 mph 1030.1mb 29f
11:18 5 6 mph 1030.3mb 29f
11:12 5 6 mph 1030.3mb 30f
11:06 5 6 mph 1030.3mb 30f
11:00 5
mph
1030.2mb 30f
10:54 3 5 mph 1030mb 29f
10:48 3 5 mph 1030mb 30f
10:42 3 5 mph 1030.1mb 30f
10:36 3
mph
1030mb 31f
10:30 3
mph
1030.1mb 31f
10:24 2
mph
1030mb 31f
10:18 2 3 mph 1030.1mb 31f
10:12 2 3 mph 1030.1mb 31f
10:06 2 3 mph 1029.9mb 31f
10:00 3 6 mph 1029.9mb -
9:54 2 3 mph 1029.8mb 32f
9:48 2 5 mph 1029.9mb 31f
9:42 3 5 mph 1029.9mb 32f
9:36 2
mph
1030mb 32f
9:30 2 3 mph 1030mb 31f
9:24 3 5 mph 1030mb 31f
9:18 3 6 mph 1030mb 31f
9:12 3 5 mph 1029.8mb 32f
9:06 3 5 mph 1029.9mb 32f
9:00 3 5 mph 1030.1mb 32f
8:54 3 5 mph 1029.9mb 32f
8:48 2 3 mph 1029.8mb -
8:42 2 3 mph 1029.6mb 32f
8:36 3 5 mph 1029.5mb 32f
8:30 3 5 mph 1029.3mb 32f
8:24 3 5 mph 1029.2mb 32f
8:18 5 6 mph - -
8:12 5 6 mph 1029mb 32f
8:06 3 5 mph 1029.2mb 32f
8:00 5 6 mph 1029.3mb 32f
7:54 3 5 mph 1029.3mb 32f
7:48 5 6 mph 1029.2mb -
7:42 3 6 mph 1029mb 33f
7:36 3 5 mph 1028.9mb 33f
7:30 5 6 mph 1028.8mb 33f
7:24 5 6 mph 1028.7mb 33f
7:18 3 5 mph - -
7:12 3 6 mph 1028.6mb 32f
7:06 3 6 mph 1028.6mb 33f
7:00 2 3 mph 1028.6mb -
6:54 3 5 mph 1028.7mb 33f
6:48 2 3 mph 1028.5mb 33f
6:42 2
mph
1028.5mb 34f
6:36 2 3 mph 1028.3mb 34f
6:30 3 5 mph 1028.3mb 33f
6:24 2 3 mph 1028.4mb 34f
6:18 2 3 mph 1028.3mb -
6:12 3 5 mph 1028.2mb 34f
6:06 5
mph
1028.3mb 34f
6:00 2 3 mph 1028.2mb 34f
5:54 3 5 mph 1028.2mb 34f
5:48 3 6 mph 1028.1mb 34f
5:42 3 5 mph 1028mb 34f
5:36 3 5 mph 1027.8mb 34f
5:30 3 5 mph 1027.8mb 34f
5:24 3 5 mph 1027.7mb 35f
5:18 3 5 mph 1027.5mb 35f
5:12 2 5 mph 1027.5mb 35f
5:06 2 5 mph 1027.5mb 35f
5:00 3 5 mph 1027.5mb 35f
4:54 2 3 mph 1027.4mb 36f
4:48 3 5 mph 1027.3mb 36f
4:42 2 6 mph 1027.2mb 36f
4:36 2 6 mph 1027.1mb 36f
4:30 2 3 mph 1027.1mb 36f
4:24 1 2 mph 1027.2mb 37f
4:18 2 5 mph 1027mb 37f
4:12 1 2 mph 1027mb 38f
4:06 3 5 mph 1026.8mb 37f
4:00 6 8 mph 1026.8mb 37f
3:54 6 8 mph 1026.6mb 37f
3:48 7 9 mph 1026.5mb 37f
3:42 6 9 mph 1026.4mb 37f
3:36 5 6 mph 1026.4mb 37f
3:30 5 7 mph 1026.4mb 38f
3:24 7 9 mph 1026.4mb 37f
3:18 7 9 mph 1026.4mb -
3:12 9 11 mph 1026.3mb 37f
3:06 6 10 mph 1026.3mb 37f
3:00 5 6 mph 1026.2mb 38f
2:54 5 6 mph 1026.2mb 38f
2:48 7 10 mph 1026.2mb 37f
2:42 3 6 mph 1026.1mb 37f
2:36 6 7 mph 1026mb 37f
2:30 7 8 mph 1026mb -
2:24 7 10 mph 1025.9mb 37f
2:18 7 9 mph 1025.8mb 37f
2:12 8 10 mph 1025.8mb 37f
2:06 8 10 mph 1025.8mb 37f
2:00 6 9 mph 1025.7mb 37f
1:54 9 11 mph 1025.7mb 37f
1:48 8 10 mph 1025.6mb 36f
1:42 7 10 mph 1025.5mb -
1:36 9 11 mph 1025.6mb 36f
1:30 9 11 mph 1025.5mb 36f
1:24 8 11 mph 1025.6mb 36f
1:18 10 13 mph 1025.5mb 36f
1:12 7 10 mph 1025.5mb 36f
1:06 8 13 mph 1025.6mb 37f
1:00 8 14 mph 1025.5mb 36f
12:54 8 13 mph 1025.6mb 36f
12:48 10 15 mph 1025.6mb 36f
12:42 7 13 mph 1025.6mb 36f
12:36 6 10 mph 1025.7mb 36f
12:30 5 8 mph 1025.7mb 37f
12:24 7 9 mph 1025.8mb 36f
12:18 6 10 mph 1025.8mb 36f
12:12 7 13 mph 1025.9mb 36f
12:06 7 11 mph 1026mb 36f
12:00 8 13 mph 1026.1mb 35f
11:54 7 9 mph 1026.1mb 35f
11:48 9 13 mph 1026.2mb 35f
11:42 6 9 mph 1026.2mb 35f
11:36 8 13 mph 1026.3mb 35f
11:30 8 13 mph 1026.4mb 35f
11:24 9 14 mph 1026.4mb 35f
11:18 9 13 mph 1026.5mb 34f
11:12 8 11 mph 1026.4mb 34f
11:06 8 13 mph 1026.5mb 35f
11:00 9 14 mph 1026.6mb 35f
10:54 7 10 mph 1026.6mb 34f
10:48 10 14 mph 1026.7mb 34f
10:42 8 16 mph 1026.7mb 34f
10:36 9 15 mph 1026.8mb 34f
10:30 8 13 mph 1026.9mb 34f
10:24 9 13 mph 1026.9mb 34f
10:18 9 14 mph 1027mb 34f
10:12 10 15 mph 1027mb 33f
10:06 11 17 mph 1027mb 33f
10:00 11 17 mph 1027.1mb 33f
9:54 11 17 mph 1027.1mb 33f
9:48 11 16 mph 1027.1mb 33f
9:42 9 16 mph 1027.1mb 33f
9:36 11 16 mph 1027.1mb 32f
9:30 8 16 mph 1027.1mb 32f
9:24 8 14 mph 1027.1mb 32f
9:18 8 15 mph 1027mb 32f
9:12 10 16 mph 1027mb 31f
9:06 6 11 mph 1026.9mb 31f
9:00 7 11 mph 1026.9mb 31f
8:54 8 13 mph 1026.9mb 31f
8:48 7 10 mph 1026.9mb 31f
8:42 6 10 mph 1026.9mb 30f
8:36 5 10 mph 1026.7mb 30f
8:30 6 13 mph 1026.6mb 30f
8:24 7 11 mph 1026.5mb 30f
8:18 6 10 mph 1026.4mb 30f
8:12 3 7 mph 1026.3mb 30f
8:06 5 8 mph 1026.3mb 30f
8:00 6 8 mph 1026.2mb 29f
7:54 5 6 mph 1026.1mb 29f
7:48 3 7 mph 1026mb 29f
7:42 2 3 mph 1025.9mb 29f
7:36 2 5 mph 1025.8mb 29f
7:30 3 5 mph 1025.7mb 29f
7:24 3 6 mph 1025.6mb 28f
7:18 3 6 mph 1025.5mb 28f
7:12 5 7 mph 1025.4mb 28f
7:06 3 6 mph 1025.3mb 28f
7:00 3 7 mph 1025.3mb 28f
6:54 3 7 mph 1025.2mb 29f
6:48 3 8 mph 1025.2mb 29f
6:42 3 7 mph 1025.2mb 29f
6:36 3 6 mph 1025.1mb 29f
6:30 2 7 mph 1025mb 29f
6:24 3 6 mph 1024.9mb 28f
6:18 3 6 mph 1024.9mb 29f
6:12 5 8 mph 1024.8mb 28f
6:06 3 7 mph 1024.6mb 29f
6:00 3 6 mph 1024.5mb 28f
5:54 3 7 mph 1024.4mb 28f
5:48 3 7 mph 1024.4mb 28f
5:42 3 6 mph 1024.3mb 29f
5:36 5 8 mph 1024.2mb 29f
5:30 3 8 mph 1024.2mb 29f
5:24 5 8 mph 1024.2mb 29f
5:18 3 7 mph 1024.2mb 29f
5:12 3 7 mph 1024.1mb 29f
5:06 3 6 mph 1024.1mb 29f
5:00 2 5 mph 1024.1mb 29f
4:54 5 7 mph 1024.2mb 29f
4:48 5 8 mph 1024.2mb 29f
4:42 5 8 mph 1024.1mb 29f
4:36 6 10 mph 1024.1mb 29f
4:30 6 9 mph 1024.1mb 30f
4:24 5 8 mph 1024.1mb 29f
4:18 5 8 mph 1024.1mb 29f
4:12 3 7 mph 1024.2mb 30f
4:06 5 7 mph 1024.2mb 30f
4:00 3 7 mph 1024.2mb 29f
3:54 5 9 mph 1024.3mb 30f
3:48 3 6 mph 1024.4mb 30f
3:42 6 10 mph 1024.5mb 30f
3:36 5 8 mph 1024.5mb 30f
3:30 5 8 mph 1024.4mb 31f
3:24 6 9 mph 1024.4mb 31f
3:18 5 9 mph 1024.5mb 31f
3:12 6 9 mph 1024.5mb 31f
3:06 5 8 mph 1024.6mb 31f
3:00 6 9 mph 1024.6mb 31f
2:54 6 9 mph 1024.7mb 31f
2:48 6 14 mph 1024.7mb 31f
2:42 6 13 mph 1024.7mb 31f
2:36 5 8 mph 1024.7mb 31f
2:30 6 9 mph 1024.7mb 31f
2:24 5 9 mph 1024.7mb 31f
2:18 6 9 mph 1024.8mb 31f
2:12 6 8 mph 1024.9mb 31f
2:06 3 7 mph 1024.9mb 31f
2:00 6 9 mph 1024.9mb 31f
1:54 5 9 mph 1024.9mb 31f
1:48 5 8 mph 1024.9mb -
1:42 3 6 mph 1024.9mb -
1:36 5 9 mph 1025mb -
1:30 6 8 mph 1025mb 31f
1:24 6 9 mph 1025.1mb 31f
1:18 3 7 mph 1025.1mb 31f
1:12 6 9 mph 1025.1mb 31f
1:06 5 7 mph 1025.1mb 31f
1:00 6 9 mph 1025.1mb -
12:54 5 9 mph 1025.1mb 31f
12:48 6 11 mph 1025.1mb 31f
12:42 5 8 mph 1025.1mb -
12:36 5 9 mph 1025.2mb -
12:30 5 7 mph 1025.4mb 31f
12:24 6 9 mph 1025.5mb 31f
12:18 3 7 mph 1025.7mb 31f
12:12 5 7 mph 1025.7mb 31f
12:06 5 10 mph 1025.8mb 31f
12:00 6 8 mph 1025.9mb 31f
Sa 01/14 11:54 5 9 mph 1026mb 31f
11:48 6 8 mph 1026mb 31f
11:42 5 8 mph 1026.1mb 31f
11:36 3 6 mph 1026.2mb 30f
11:30 5 8 mph 1026.4mb 30f
11:24 6 8 mph 1026.5mb 30f
11:18 6 8 mph 1026.6mb 30f
11:12 6 8 mph 1026.8mb 30f
11:06 6 8 mph 1026.9mb 30f
11:00 7 10 mph 1027mb 30f
10:54 6 10 mph 1027.1mb 30f
10:48 6 10 mph 1027.2mb 29f
10:42 6 10 mph 1027.3mb 29f
10:36 6 9 mph 1027.5mb 29f
10:30 6 10 mph 1027.7mb 29f
10:24 7 10 mph 1027.7mb 29f
10:18 6 9 mph 1027.8mb 29f
10:12 7 10 mph 1027.9mb 29f
10:06 7 11 mph 1028mb 29f
10:00 7 10 mph 1028mb 29f
9:54 7 11 mph 1028.1mb 29f
9:48 7 13 mph 1028.2mb 29f
9:42 7 10 mph 1028.3mb 29f
9:36 6 9 mph 1028.4mb 29f
9:30 6 10 mph 1028.6mb 29f
9:24 6 9 mph 1028.8mb 28f
9:18 6 10 mph 1028.8mb 28f
9:12 6 10 mph 1028.8mb 28f
9:06 6 8 mph 1028.9mb 28f
9:00 6 9 mph 1029mb 28f
8:54 7 10 mph 1029mb 28f
8:48 6 10 mph 1029.2mb 28f
8:42 5 7 mph 1029.2mb 28f
8:36 5 6 mph 1029.3mb 28f
8:30 3 5 mph 1029.3mb 28f
8:24 5 7 mph 1029.4mb 28f
8:18 5 6 mph 1029.4mb 28f
8:12 5 7 mph 1029.5mb 28f
8:06 3 7 mph 1029.6mb 28f
8:00 5 8 mph 1029.8mb 28f
7:54 6 11 mph 1030mb 28f
7:48 6 9 mph 1030mb 28f
7:42 5 7 mph 1030.1mb 28f
7:36 7 11 mph 1030.2mb 28f
7:30 6 10 mph 1030.3mb 29f
7:24 6 8 mph 1030.2mb 29f
7:18 6 9 mph 1030.2mb -
7:12 6 8 mph 1030.2mb 30f
7:06 6 8 mph 1030.2mb 30f
7:00 6 7 mph 1030.3mb 30f
6:54 6 8 mph 1030.3mb 30f
6:48 6 8 mph 1030.5mb 30f
6:42 5 6 mph 1030.6mb 29f
6:36 6 8 mph 1030.6mb 29f
6:30 6 7 mph 1030.8mb 29f
6:24 5 7 mph 1031mb 29f
6:18 6 8 mph 1031.1mb 29f
6:12 5 8 mph 1031.1mb 29f
6:06 5 7 mph 1031.1mb 29f
6:00 6 8 mph 1031.2mb 29f
5:54 5 8 mph 1031.4mb 29f
5:48 5 8 mph 1031.4mb 29f
5:42 5 7 mph 1031.5mb 29f
5:36 6 8 mph 1031.7mb 29f
5:30 6 9 mph 1031.7mb 29f
5:24 6 10 mph 1031.9mb 29f
5:18 6 9 mph 1032mb 29f
5:12 6 8 mph 1032mb 28f
5:06 7 10 mph 1032.1mb 29f
5:00 7 11 mph 1032.1mb 28f
4:54 7 13 mph 1032.2mb 29f
4:48 8 10 mph - -
4:42 7 10 mph 1032.3mb 29f
4:36 7 13 mph 1032.4mb 29f
4:30 9 14 mph 1032.5mb 29f